Time;durP1;ratioP1;P1;durP2;ratioP2;P2;SDS_P1;SDS_P2;PMS_P1;PMS_P2;Temp;Humidity;BMP_temperature;BMP_pressure;BME280_temperature;BME280_humidity;BME280_pressure;Samples;Min_cycle;Max_cycle;Signal;HPM_P1;HPM_P2
2021/01/30 00:00:07;;;;;;;21.73;13.82;;;5.10;99.90;;;;;;4958124;28;20194;-79
2021/01/30 00:02:34;;;;;;;15.60;11.57;;;5.10;99.90;;;;;;4958016;28;20194;-79
2021/01/30 00:05:01;;;;;;;21.95;12.82;;;5.10;99.90;;;;;;4952372;28;21711;-78
2021/01/30 00:07:28;;;;;;;17.92;11.90;;;5.10;99.90;;;;;;4956694;28;20194;-79
2021/01/30 00:09:54;;;;;;;20.73;13.90;;;5.10;99.90;;;;;;4958047;28;20226;-79
2021/01/30 00:12:20;;;;;;;20.90;13.38;;;5.10;99.90;;;;;;4957880;28;20250;-79
2021/01/30 00:14:47;;;;;;;15.77;11.43;;;5.00;99.90;;;;;;4951914;28;20209;-79
2021/01/30 00:17:13;;;;;;;20.58;13.05;;;4.90;99.90;;;;;;4956085;29;20717;-78
2021/01/30 00:19:39;;;;;;;19.48;12.48;;;4.90;99.90;;;;;;4955457;28;20202;-79
2021/01/30 00:22:10;;;;;;;17.40;10.90;;;4.80;99.90;;;;;;4955238;29;20245;-79
2021/01/30 00:24:42;;;;;;;20.65;14.13;;;4.80;99.90;;;;;;4958028;29;20224;-80
2021/01/30 00:27:10;;;;;;;18.55;12.48;;;4.80;99.90;;;;;;4957147;29;20189;-78
2021/01/30 00:29:37;;;;;;;24.38;12.93;;;4.70;99.90;;;;;;4958236;28;20201;-78
2021/01/30 00:32:04;;;;;;;20.10;14.88;;;4.70;99.90;;;;;;4959777;28;20675;-79
2021/01/30 00:34:33;;;;;;;25.20;12.57;;;4.70;99.90;;;;;;4962040;28;20206;-78
2021/01/30 00:37:05;;;;;;;28.27;13.25;;;4.60;99.90;;;;;;4960162;28;20221;-78
2021/01/30 00:39:33;;;;;;;24.70;13.27;;;4.50;99.90;;;;;;4957346;28;20197;-79
2021/01/30 00:41:59;;;;;;;25.98;15.40;;;4.30;99.90;;;;;;4960135;29;20675;-80
2021/01/30 00:44:27;;;;;;;20.60;13.65;;;4.40;99.90;;;;;;4960535;29;20209;-80
2021/01/30 00:46:53;;;;;;;25.05;12.45;;;4.40;99.90;;;;;;4959673;29;20224;-78
2021/01/30 00:49:19;;;;;;;19.85;12.30;;;4.30;99.90;;;;;;4960519;28;20205;-79
2021/01/30 00:51:46;;;;;;;18.05;11.60;;;4.30;99.90;;;;;;4961016;28;20261;-79
2021/01/30 00:54:12;;;;;;;22.15;10.70;;;4.10;99.90;;;;;;4954032;28;20204;-79
2021/01/30 00:56:39;;;;;;;17.85;12.85;;;4.00;99.90;;;;;;4954049;28;20221;-79
2021/01/30 00:59:06;;;;;;;20.85;12.95;;;4.00;99.90;;;;;;4960267;28;20238;-78
2021/01/30 01:01:36;;;;;;;15.18;11.25;;;3.90;99.90;;;;;;4961364;29;20592;-79
2021/01/30 01:04:03;;;;;;;21.90;11.43;;;3.80;99.90;;;;;;4960594;29;20203;-77
2021/01/30 01:06:29;;;;;;;21.45;12.88;;;3.80;99.90;;;;;;4957133;29;20286;-78
2021/01/30 01:08:56;;;;;;;19.33;12.73;;;3.70;99.90;;;;;;4957157;29;20197;-78
2021/01/30 01:11:22;;;;;;;20.33;12.18;;;3.70;99.90;;;;;;4959926;29;20212;-79
2021/01/30 01:13:51;;;;;;;15.45;11.50;;;3.70;99.90;;;;;;4960381;28;20201;-79
2021/01/30 01:16:17;;;;;;;23.48;12.85;;;3.60;99.90;;;;;;4955331;28;20224;-79
2021/01/30 01:18:45;;;;;;;17.52;12.57;;;3.60;99.90;;;;;;4960176;29;20213;-80
2021/01/30 01:21:11;;;;;;;14.88;11.73;;;3.60;99.90;;;;;;4959705;29;20228;-78
2021/01/30 01:23:40;;;;;;;18.80;11.02;;;3.60;99.90;;;;;;4960443;29;20204;-80
2021/01/30 01:26:06;;;;;;;15.63;9.73;;;3.50;99.90;;;;;;4960023;29;20224;-79
2021/01/30 01:28:32;;;;;;;19.70;10.30;;;3.40;99.90;;;;;;4960584;29;20208;-80
2021/01/30 01:30:59;;;;;;;13.60;9.40;;;3.40;99.90;;;;;;4960713;28;20219;-79
2021/01/30 01:33:26;;;;;;;12.68;9.85;;;3.30;99.90;;;;;;4960640;29;20207;-80
2021/01/30 01:35:52;;;;;;;13.80;9.70;;;3.20;99.90;;;;;;4959460;29;20224;-79
2021/01/30 01:38:18;;;;;;;18.80;12.98;;;3.20;99.90;;;;;;4960825;29;20201;-78
2021/01/30 01:40:45;;;;;;;17.85;11.27;;;3.20;99.90;;;;;;4960734;28;20195;-80
2021/01/30 01:43:14;;;;;;;18.27;12.50;;;3.30;99.90;;;;;;4960276;28;20211;-80
2021/01/30 01:45:41;;;;;;;19.13;11.98;;;3.30;99.90;;;;;;4959728;28;20316;-78
2021/01/30 01:48:13;;;;;;;20.88;12.20;;;3.20;99.90;;;;;;4959334;28;20198;-79
2021/01/30 01:50:43;;;;;;;14.75;10.95;;;3.20;99.90;;;;;;4963711;28;20213;-78
2021/01/30 01:53:14;;;;;;;18.13;11.75;;;3.10;99.90;;;;;;4961050;28;20197;-78
2021/01/30 01:55:46;;;;;;;15.60;10.05;;;3.00;99.90;;;;;;4957110;28;20365;-80
2021/01/30 01:58:13;;;;;;;14.52;11.13;;;3.00;99.90;;;;;;4959877;28;20564;-80
2021/01/30 02:00:40;;;;;;;10.82;9.70;;;2.90;99.90;;;;;;4958169;28;20203;-79
2021/01/30 02:03:07;;;;;;;14.63;11.68;;;2.80;99.90;;;;;;4959301;29;20260;-79
2021/01/30 02:05:38;;;;;;;18.60;11.32;;;2.80;99.90;;;;;;4955062;28;20217;-79
2021/01/30 02:08:08;;;;;;;15.88;11.00;;;2.60;99.90;;;;;;4958830;29;20248;-78
2021/01/30 02:10:38;;;;;;;13.15;10.43;;;2.50;99.90;;;;;;4959565;28;20228;-80
2021/01/30 02:13:10;;;;;;;20.35;13.15;;;2.50;99.90;;;;;;4959465;29;20189;-80
2021/01/30 02:15:37;;;;;;;20.33;13.02;;;2.50;99.90;;;;;;4960229;28;20219;-80
2021/01/30 02:18:13;;;;;;;20.92;13.30;;;2.40;99.90;;;;;;4958165;28;20190;-80
2021/01/30 02:21:35;;;;;;;27.35;14.48;;;2.40;99.90;;;;;;4959249;29;20191;-79
2021/01/30 02:24:55;;;;;;;19.90;13.35;;;2.30;99.90;;;;;;4956532;29;20193;-80
2021/01/30 02:27:37;;;;;;;30.80;16.20;;;2.20;99.90;;;;;;4940613;29;20220;-79
2021/01/30 02:30:55;;;;;;;26.23;15.48;;;2.20;99.90;;;;;;4959145;29;20237;-79
2021/01/30 02:34:03;;;;;;;24.23;15.95;;;2.30;99.90;;;;;;4951133;28;20258;-80
2021/01/30 02:36:40;;;;;;;31.23;16.55;;;2.30;99.90;;;;;;4931416;28;20220;-78
2021/01/30 02:39:15;;;;;;;25.05;15.40;;;2.30;99.90;;;;;;4959339;28;20179;-80
2021/01/30 02:41:47;;;;;;;32.15;17.80;;;2.30;99.90;;;;;;4959835;28;20263;-79
2021/01/30 02:44:16;;;;;;;31.70;17.38;;;2.40;99.90;;;;;;4959445;28;20246;-79
2021/01/30 02:46:49;;;;;;;33.55;19.55;;;2.40;99.90;;;;;;4958725;28;20279;-79
2021/01/30 02:49:19;;;;;;;28.17;18.33;;;2.40;99.90;;;;;;4958821;28;20197;-80
2021/01/30 02:51:54;;;;;;;31.00;18.88;;;2.30;99.90;;;;;;4958896;28;20304;-79
2021/01/30 02:54:21;;;;;;;32.85;19.83;;;2.20;99.90;;;;;;4959137;28;20209;-78
2021/01/30 02:56:48;;;;;;;37.10;20.90;;;2.10;99.90;;;;;;4958101;28;20222;-79
2021/01/30 02:59:17;;;;;;;37.08;21.02;;;2.00;99.90;;;;;;4958919;28;20203;-80
2021/01/30 03:01:43;;;;;;;33.25;19.65;;;2.10;99.90;;;;;;4959770;28;20196;-79
2021/01/30 03:04:14;;;;;;;33.50;19.02;;;2.00;99.90;;;;;;4958945;28;20213;-79
2021/01/30 03:06:50;;;;;;;38.92;21.80;;;1.90;99.90;;;;;;4959266;28;20321;-80
2021/01/30 03:09:23;;;;;;;34.08;20.70;;;1.70;99.90;;;;;;4959107;28;20548;-80
2021/01/30 03:11:59;;;;;;;32.67;22.17;;;1.60;99.90;;;;;;4958875;28;20768;-80
2021/01/30 03:14:28;;;;;;;35.40;21.90;;;1.50;99.90;;;;;;4959090;28;20206;-79
2021/01/30 03:16:56;;;;;;;37.95;22.63;;;1.50;99.90;;;;;;4958650;28;20719;-80
2021/01/30 03:19:25;;;;;;;38.78;22.52;;;1.50;99.90;;;;;;4939935;29;20203;-79
2021/01/30 03:21:58;;;;;;;48.67;29.42;;;1.40;99.90;;;;;;4939312;29;20732;-81
2021/01/30 03:24:26;;;;;;;43.70;30.75;;;1.40;99.90;;;;;;4940161;29;20216;-79
2021/01/30 03:26:53;;;;;;;50.20;31.55;;;1.30;99.90;;;;;;4939725;29;20235;-80
2021/01/30 03:29:20;;;;;;;47.70;27.90;;;1.30;99.90;;;;;;4939897;29;20665;-81
2021/01/30 03:31:47;;;;;;;42.20;26.92;;;1.30;99.90;;;;;;4939495;29;20581;-80
2021/01/30 03:34:14;;;;;;;41.63;24.80;;;1.30;99.90;;;;;;4938693;29;20613;-79
2021/01/30 03:36:41;;;;;;;38.95;23.20;;;1.30;99.90;;;;;;4939817;29;20229;-80
2021/01/30 03:39:11;;;;;;;40.40;23.50;;;1.30;99.90;;;;;;4938888;29;20558;-80
2021/01/30 03:41:38;;;;;;;35.42;20.23;;;1.30;99.90;;;;;;4940133;29;20223;-80
2021/01/30 03:44:05;;;;;;;32.60;19.70;;;1.30;99.90;;;;;;4939898;29;20197;-81
2021/01/30 03:46:31;;;;;;;31.00;18.65;;;1.40;99.90;;;;;;4958229;29;20212;-79
2021/01/30 03:48:57;;;;;;;31.67;18.80;;;1.30;99.90;;;;;;4959550;28;20243;-79
2021/01/30 03:51:24;;;;;;;30.98;19.83;;;1.40;99.90;;;;;;4958638;28;20214;-80
2021/01/30 03:53:50;;;;;;;28.67;18.35;;;1.20;99.90;;;;;;4958618;28;20205;-81
2021/01/30 03:56:17;;;;;;;28.40;18.83;;;1.20;99.90;;;;;;4958802;28;20253;-80
2021/01/30 03:58:45;;;;;;;35.25;19.98;;;1.20;99.90;;;;;;4958807;28;20203;-80
2021/01/30 04:01:11;;;;;;;29.30;18.23;;;1.10;99.90;;;;;;4962453;28;20205;-80
2021/01/30 04:03:38;;;;;;;35.35;19.25;;;1.00;99.90;;;;;;4960068;28;20211;-80
2021/01/30 04:06:04;;;;;;;35.20;20.55;;;1.10;99.90;;;;;;4958209;28;20218;-80
2021/01/30 04:08:30;;;;;;;28.45;17.48;;;1.10;99.90;;;;;;4959094;28;20196;-80
2021/01/30 04:10:57;;;;;;;31.92;18.33;;;1.00;99.90;;;;;;4959172;29;20274;-80
2021/01/30 04:13:24;;;;;;;32.47;18.55;;;1.00;99.90;;;;;;4962283;28;20191;-80
2021/01/30 04:15:50;;;;;;;30.52;19.17;;;1.00;99.90;;;;;;4961880;28;20257;-80
2021/01/30 04:18:16;;;;;;;30.05;19.00;;;0.90;99.90;;;;;;4961672;28;20198;-81
2021/01/30 04:20:43;;;;;;;35.78;20.70;;;0.90;99.90;;;;;;4962091;28;20202;-80
2021/01/30 04:23:10;;;;;;;28.23;16.77;;;0.90;99.90;;;;;;4957551;28;20223;-80
2021/01/30 04:25:36;;;;;;;42.10;23.00;;;0.90;99.90;;;;;;4961790;28;20220;-80
2021/01/30 04:28:04;;;;;;;39.97;23.05;;;0.90;99.90;;;;;;4961940;29;20564;-80
2021/01/30 04:30:33;;;;;;;44.88;25.98;;;0.80;99.90;;;;;;4961906;29;20211;-79
2021/01/30 04:33:00;;;;;;;42.35;24.48;;;0.80;99.90;;;;;;4961709;28;20199;-80
2021/01/30 04:35:30;;;;;;;37.15;23.30;;;0.70;99.90;;;;;;4962010;28;20230;-81
2021/01/30 04:37:56;;;;;;;36.08;24.02;;;0.70;99.90;;;;;;4961503;28;20204;-81
2021/01/30 04:40:29;;;;;;;37.33;24.48;;;0.60;99.90;;;;;;4962052;28;20205;-81
2021/01/30 04:43:01;;;;;;;39.85;23.20;;;0.60;99.90;;;;;;4961492;28;20203;-78
2021/01/30 04:45:44;;;;;;;40.20;23.58;;;0.70;99.90;;;;;;4961530;28;20222;-80
2021/01/30 04:48:23;;;;;;;35.10;21.23;;;0.70;99.90;;;;;;4961172;28;20190;-81
2021/01/30 04:50:54;;;;;;;39.25;22.73;;;0.70;99.90;;;;;;4961751;28;20210;-81
2021/01/30 04:53:38;;;;;;;32.90;18.52;;;0.80;99.90;;;;;;4961674;28;20186;-81
2021/01/30 04:56:15;;;;;;;32.40;19.52;;;0.80;99.90;;;;;;4960327;28;20282;-80
2021/01/30 04:58:50;;;;;;;29.90;18.35;;;0.80;99.90;;;;;;4961746;28;20187;-80
2021/01/30 05:01:23;;;;;;;29.63;18.20;;;0.80;99.90;;;;;;4960670;28;20222;-80
2021/01/30 05:04:05;;;;;;;25.23;17.10;;;0.80;99.90;;;;;;4961554;28;20203;-80
2021/01/30 05:06:47;;;;;;;26.70;17.20;;;0.70;99.90;;;;;;4960638;28;20214;-81
2021/01/30 05:09:18;;;;;;;31.55;19.23;;;0.70;99.90;;;;;;4961078;28;20276;-81
2021/01/30 05:11:53;;;;;;;26.08;17.60;;;0.60;99.90;;;;;;4960888;28;20219;-81
2021/01/30 05:14:25;;;;;;;31.77;18.80;;;0.60;99.90;;;;;;4961453;28;20206;-80
2021/01/30 05:17:01;;;;;;;31.00;19.77;;;0.70;99.90;;;;;;4960205;28;20226;-79
2021/01/30 05:19:31;;;;;;;24.70;16.35;;;0.70;99.90;;;;;;4961313;28;20186;-80
2021/01/30 05:22:01;;;;;;;24.17;15.32;;;0.80;99.90;;;;;;4961045;28;20565;-80
2021/01/30 05:24:29;;;;;;;22.65;15.90;;;0.70;99.90;;;;;;4961657;28;20202;-79
2021/01/30 05:27:16;;;;;;;22.75;14.60;;;0.60;99.90;;;;;;4960564;28;20217;-79
2021/01/30 05:29:51;;;;;;;20.58;14.50;;;0.60;99.90;;;;;;4961612;28;20221;-81
2021/01/30 05:32:26;;;;;;;24.50;15.88;;;0.40;99.90;;;;;;4961196;28;20186;-80
2021/01/30 05:34:56;;;;;;;24.75;15.75;;;0.50;99.90;;;;;;4960605;28;20187;-80
2021/01/30 05:37:29;;;;;;;22.02;14.48;;;0.60;99.90;;;;;;4960984;28;20560;-79
2021/01/30 05:40:20;;;;;;;22.67;14.82;;;0.60;99.90;;;;;;4960889;28;20179;-81
2021/01/30 05:42:56;;;;;;;24.60;16.20;;;0.60;99.90;;;;;;4960452;28;20216;-80
2021/01/30 05:45:39;;;;;;;25.77;15.70;;;0.50;99.90;;;;;;4960613;28;20219;-81
2021/01/30 05:48:10;;;;;;;24.42;15.63;;;0.60;99.90;;;;;;4960094;28;20194;-82
2021/01/30 05:50:42;;;;;;;25.63;16.27;;;0.60;99.90;;;;;;4961045;28;20265;-81
2021/01/30 05:53:10;;;;;;;24.48;15.50;;;0.60;99.90;;;;;;4960819;28;20182;-81
2021/01/30 05:55:38;;;;;;;22.33;16.17;;;0.50;99.90;;;;;;4961030;28;20218;-82
2021/01/30 05:58:06;;;;;;;21.58;15.65;;;0.50;99.90;;;;;;4960257;28;20209;-80
2021/01/30 06:00:33;;;;;;;23.02;14.43;;;0.60;99.90;;;;;;4959761;28;20197;-81
2021/01/30 06:03:02;;;;;;;22.08;15.07;;;0.60;99.90;;;;;;4960193;28;20249;-79
2021/01/30 06:05:33;;;;;;;23.08;16.70;;;0.60;99.90;;;;;;4960610;28;20231;-81
2021/01/30 06:08:25;;;;;;;23.50;15.60;;;0.60;99.90;;;;;;4959716;28;20198;-82
2021/01/30 06:10:53;;;;;;;23.75;15.50;;;0.60;99.90;;;;;;4950114;28;20245;-79
2021/01/30 06:13:22;;;;;;;25.80;16.60;;;0.70;99.90;;;;;;4959831;28;20205;-82
2021/01/30 06:15:53;;;;;;;22.20;16.00;;;0.70;99.90;;;;;;4959413;28;20774;-81
2021/01/30 06:18:35;;;;;;;24.02;17.10;;;0.80;99.90;;;;;;4959170;28;20218;-80
2021/01/30 06:21:09;;;;;;;23.10;15.82;;;0.80;99.90;;;;;;4959880;28;20201;-81
2021/01/30 06:23:37;;;;;;;23.35;15.77;;;0.80;99.90;;;;;;4959577;28;20182;-79
2021/01/30 06:26:11;;;;;;;21.55;14.25;;;0.70;99.90;;;;;;4959275;28;20221;-81
2021/01/30 06:28:42;;;;;;;26.75;17.58;;;0.70;99.90;;;;;;4958157;28;20202;-79
2021/01/30 06:31:27;;;;;;;20.02;14.48;;;0.70;99.90;;;;;;4959655;28;20648;-79
2021/01/30 06:33:57;;;;;;;18.00;13.50;;;0.70;99.90;;;;;;4959599;28;20624;-81
2021/01/30 06:36:27;;;;;;;18.10;13.65;;;0.50;99.90;;;;;;4956241;28;20210;-81
2021/01/30 06:38:58;;;;;;;18.33;12.85;;;0.50;99.90;;;;;;4958275;28;20205;-81
2021/01/30 06:41:30;;;;;;;18.73;12.80;;;0.60;99.90;;;;;;4952061;29;20249;-79
2021/01/30 06:44:19;;;;;;;16.55;12.45;;;0.60;99.90;;;;;;4959182;28;20752;-81
2021/01/30 06:47:01;;;;;;;18.83;11.30;;;0.60;99.90;;;;;;4959665;29;20218;-79
2021/01/30 06:49:34;;;;;;;14.05;10.93;;;0.60;99.90;;;;;;4942227;29;20199;-82
2021/01/30 06:52:07;;;;;;;17.38;11.88;;;0.60;99.90;;;;;;4953754;29;20290;-80
2021/01/30 06:54:34;;;;;;;17.00;12.18;;;0.60;99.90;;;;;;4959015;28;20223;-80
2021/01/30 06:57:09;;;;;;;15.07;11.15;;;0.70;99.90;;;;;;4958536;28;20218;-81
2021/01/30 06:59:38;;;;;;;15.77;12.07;;;0.70;99.90;;;;;;4959901;29;20636;-80
2021/01/30 07:02:14;;;;;;;20.65;15.90;;;0.70;99.90;;;;;;4960483;28;20198;-80
2021/01/30 07:05:11;;;;;;;16.13;12.20;;;0.70;99.90;;;;;;4958220;28;20636;-79
2021/01/30 07:07:49;;;;;;;13.20;10.15;;;0.70;99.90;;;;;;4957852;28;20199;-80
2021/01/30 07:10:25;;;;;;;13.98;11.10;;;0.60;99.90;;;;;;4957599;28;20241;-79
2021/01/30 07:13:14;;;;;;;20.00;11.70;;;0.60;99.90;;;;;;4958089;28;20197;-79
2021/01/30 07:15:46;;;;;;;14.52;10.20;;;0.60;99.90;;;;;;4958237;28;20236;-79
2021/01/30 07:18:26;;;;;;;12.20;10.02;;;0.60;99.90;;;;;;4957530;28;20571;-80
2021/01/30 07:21:15;;;;;;;16.30;11.25;;;0.60;99.90;;;;;;4957084;28;20208;-79
2021/01/30 07:23:48;;;;;;;15.35;11.13;;;0.60;99.90;;;;;;4957275;28;20557;-78
2021/01/30 07:26:21;;;;;;;12.90;10.57;;;0.60;99.90;;;;;;4957200;28;20280;-79
2021/01/30 07:28:53;;;;;;;16.77;11.57;;;0.60;99.90;;;;;;4958687;28;20205;-80
2021/01/30 07:31:27;;;;;;;17.30;12.38;;;0.60;99.90;;;;;;4957542;28;20285;-79
2021/01/30 07:34:00;;;;;;;13.32;10.52;;;0.50;99.90;;;;;;4957194;28;20555;-78
2021/01/30 07:36:35;;;;;;;18.30;12.65;;;0.50;99.90;;;;;;4957046;28;20226;-79
2021/01/30 07:39:12;;;;;;;14.30;10.77;;;0.50;99.90;;;;;;4957229;28;20580;-79
2021/01/30 07:41:48;;;;;;;16.00;11.77;;;0.50;99.90;;;;;;4957210;28;20190;-78
2021/01/30 07:44:20;;;;;;;14.55;10.65;;;0.50;99.90;;;;;;4956776;28;20202;-79
2021/01/30 07:46:59;;;;;;;15.40;11.35;;;0.50;99.90;;;;;;4956122;28;20234;-79
2021/01/30 07:49:28;;;;;;;15.20;11.07;;;0.50;99.90;;;;;;4938281;29;20185;-79
2021/01/30 07:52:01;;;;;;;15.88;11.23;;;0.50;99.90;;;;;;4938331;29;20223;-79
2021/01/30 07:54:28;;;;;;;13.80;10.30;;;0.50;99.90;;;;;;4937970;29;20187;-78
2021/01/30 07:57:14;;;;;;;14.80;11.30;;;0.50;99.90;;;;;;4938019;29;20226;-79
2021/01/30 07:59:49;;;;;;;11.18;9.52;;;0.50;99.90;;;;;;4937178;29;20215;-78
2021/01/30 08:02:44;;;;;;;13.80;10.45;;;0.60;99.90;;;;;;4937961;29;20233;-79
2021/01/30 08:05:29;;;;;;;13.35;9.48;;;0.60;99.90;;;;;;4938517;29;20219;-79
2021/01/30 08:07:58;;;;;;;13.18;9.73;;;0.60;99.90;;;;;;4937126;29;20175;-78
2021/01/30 08:10:49;;;;;;;9.48;7.40;;;0.50;99.90;;;;;;4937455;29;20266;-78
2021/01/30 08:13:30;;;;;;;10.60;9.00;;;0.50;99.90;;;;;;4938082;29;20187;-78
2021/01/30 08:16:02;;;;;;;9.05;7.88;;;0.50;99.90;;;;;;4945848;29;20592;-77
2021/01/30 08:18:36;;;;;;;9.48;7.30;;;0.50;99.90;;;;;;4957137;28;20205;-80
2021/01/30 08:21:12;;;;;;;8.63;7.28;;;0.50;99.90;;;;;;4957342;28;20223;-80
2021/01/30 08:23:55;;;;;;;7.47;6.13;;;0.50;99.90;;;;;;4956087;28;20197;-81
2021/01/30 08:26:28;;;;;;;6.82;5.75;;;0.50;99.90;;;;;;4956784;28;20222;-79
2021/01/30 08:29:08;;;;;;;8.38;5.75;;;0.50;99.90;;;;;;4956996;28;20202;-79
2021/01/30 08:31:37;;;;;;;8.20;6.50;;;0.50;99.90;;;;;;4956694;28;20206;-80
2021/01/30 08:34:08;;;;;;;5.53;5.03;;;0.60;99.90;;;;;;4956085;28;20273;-79
2021/01/30 08:36:39;;;;;;;6.00;5.38;;;0.70;99.90;;;;;;4956401;28;20227;-78
2021/01/30 08:39:18;;;;;;;5.68;5.13;;;0.70;99.90;;;;;;4957592;28;20200;-79
2021/01/30 08:41:48;;;;;;;9.70;7.20;;;0.60;99.90;;;;;;4956229;28;20222;-78
2021/01/30 08:44:39;;;;;;;9.25;6.43;;;0.60;99.90;;;;;;4956660;28;20254;-79
2021/01/30 08:47:12;;;;;;;6.82;5.80;;;0.70;99.90;;;;;;4956811;28;20231;-81
2021/01/30 08:49:40;;;;;;;7.70;6.50;;;0.60;99.90;;;;;;4957290;28;20200;-81
2021/01/30 08:52:22;;;;;;;7.03;6.32;;;0.70;99.90;;;;;;4957624;28;20217;-79
2021/01/30 08:54:49;;;;;;;8.57;6.25;;;0.60;99.90;;;;;;4960044;28;20655;-80
2021/01/30 08:57:43;;;;;;;7.72;6.20;;;0.70;99.90;;;;;;4960327;28;20197;-78
2021/01/30 09:00:47;;;;;;;7.35;6.57;;;0.70;99.90;;;;;;4959927;28;20609;-79
2021/01/30 09:03:37;;;;;;;7.55;6.40;;;0.80;99.90;;;;;;4955981;29;20633;-79
2021/01/30 09:06:04;;;;;;;8.15;6.93;;;0.70;99.90;;;;;;4957045;29;20232;-79
2021/01/30 09:09:00;;;;;;;9.00;6.72;;;0.80;99.90;;;;;;4957934;29;20203;-81
2021/01/30 09:11:47;;;;;;;6.85;5.60;;;0.90;99.90;;;;;;4950703;29;20294;-79
2021/01/30 09:14:38;;;;;;;12.93;5.63;;;0.90;99.90;;;;;;4960573;29;20308;-79
2021/01/30 09:17:32;;;;;;;9.02;5.97;;;0.80;99.90;;;;;;4957828;29;20228;-79
2021/01/30 09:20:26;;;;;;;5.82;5.22;;;0.90;99.90;;;;;;4959167;28;20192;-79
2021/01/30 09:23:15;;;;;;;6.72;4.50;;;1.00;99.90;;;;;;4959314;28;20188;-79
2021/01/30 09:25:53;;;;;;;5.57;5.03;;;1.00;99.90;;;;;;4958892;28;20219;-81
2021/01/30 09:28:23;;;;;;;6.53;5.45;;;1.00;99.90;;;;;;4959056;28;20206;-80
2021/01/30 09:30:55;;;;;;;7.45;4.85;;;1.00;99.90;;;;;;4959472;28;20223;-81
2021/01/30 09:33:25;;;;;;;5.82;5.22;;;1.10;99.90;;;;;;4959033;28;20199;-79
2021/01/30 09:36:00;;;;;;;6.70;5.45;;;1.10;99.90;;;;;;4959518;28;20225;-79
2021/01/30 09:38:33;;;;;;;7.55;5.78;;;1.20;99.90;;;;;;4958938;28;20225;-80
2021/01/30 09:41:08;;;;;;;6.28;5.63;;;1.10;99.90;;;;;;4959411;28;20184;-79
2021/01/30 09:43:34;;;;;;;7.45;5.32;;;1.10;99.90;;;;;;4959129;28;20207;-79
2021/01/30 09:46:06;;;;;;;8.68;7.65;;;1.10;99.90;;;;;;4958384;28;20240;-79
2021/01/30 09:48:35;;;;;;;6.45;5.80;;;1.20;99.90;;;;;;4958284;28;20191;-79
2021/01/30 09:51:02;;;;;;;6.70;6.10;;;1.30;99.90;;;;;;4958647;28;20232;-79
2021/01/30 09:53:32;;;;;;;7.00;5.97;;;1.30;99.90;;;;;;4958671;28;20754;-80
2021/01/30 09:56:07;;;;;;;7.32;5.85;;;1.30;99.90;;;;;;4954361;28;20220;-79
2021/01/30 09:58:36;;;;;;;7.00;6.00;;;1.30;99.90;;;;;;4958792;28;20191;-79
2021/01/30 10:01:08;;;;;;;6.18;5.05;;;1.30;99.90;;;;;;4958839;29;20204;-79
2021/01/30 10:03:38;;;;;;;8.75;5.57;;;1.30;99.90;;;;;;4958481;28;20189;-80
2021/01/30 10:06:16;;;;;;;5.78;4.85;;;1.40;99.90;;;;;;4958112;29;20223;-78
2021/01/30 10:08:44;;;;;;;6.35;4.55;;;1.50;99.90;;;;;;4958209;29;20188;-79
2021/01/30 10:11:14;;;;;;;7.97;5.95;;;1.50;99.90;;;;;;4958600;29;20586;-80
2021/01/30 10:13:43;;;;;;;6.55;5.10;;;1.40;99.90;;;;;;4958111;29;20250;-80
2021/01/30 10:16:14;;;;;;;5.47;4.97;;;1.50;99.90;;;;;;4956827;29;20779;-80
2021/01/30 10:18:45;;;;;;;10.35;5.88;;;1.70;99.90;;;;;;4957712;28;20240;-80
2021/01/30 10:21:11;;;;;;;4.88;4.15;;;1.80;99.90;;;;;;4958186;28;20196;-79
2021/01/30 10:23:41;;;;;;;4.45;4.05;;;1.80;99.90;;;;;;4957773;28;20208;-80
2021/01/30 10:26:16;;;;;;;5.35;4.68;;;1.80;99.90;;;;;;4958406;28;20247;-80
2021/01/30 10:28:49;;;;;;;5.32;4.90;;;1.80;99.90;;;;;;4958135;28;20203;-80
2021/01/30 10:31:19;;;;;;;7.25;4.78;;;1.80;99.90;;;;;;4957814;28;20730;-79
2021/01/30 10:33:49;;;;;;;7.35;5.40;;;1.80;99.90;;;;;;4958392;28;20188;-78
2021/01/30 10:36:18;;;;;;;9.27;5.35;;;1.90;99.90;;;;;;4957961;28;20216;-79
2021/01/30 10:38:45;;;;;;;6.15;5.50;;;2.00;99.90;;;;;;4957049;28;20252;-79
2021/01/30 10:41:17;;;;;;;7.32;6.57;;;2.00;99.90;;;;;;4958177;28;20201;-81
2021/01/30 10:43:45;;;;;;;7.72;6.20;;;2.00;99.90;;;;;;4957351;28;20188;-79
2021/01/30 10:46:17;;;;;;;5.85;5.35;;;2.00;99.90;;;;;;4957113;28;20224;-80
2021/01/30 10:48:44;;;;;;;7.65;6.20;;;2.10;99.90;;;;;;4957435;28;20216;-81
2021/01/30 10:51:18;;;;;;;7.50;4.90;;;2.10;99.90;;;;;;4957963;28;20229;-78
2021/01/30 10:53:45;;;;;;;6.65;5.70;;;1.90;99.90;;;;;;4957662;28;20544;-79
2021/01/30 10:56:15;;;;;;;7.30;5.00;;;1.80;99.90;;;;;;4956930;28;20657;-79
2021/01/30 10:58:44;;;;;;;4.93;4.45;;;1.80;99.90;;;;;;4957831;28;20196;-78
2021/01/30 11:01:13;;;;;;;5.85;5.35;;;1.80;99.90;;;;;;4957752;28;20284;-79
2021/01/30 11:03:50;;;;;;;5.22;4.75;;;1.80;99.90;;;;;;4957517;28;20209;-79
2021/01/30 11:06:22;;;;;;;8.10;5.00;;;1.80;99.90;;;;;;4957502;28;20624;-79
2021/01/30 11:08:49;;;;;;;5.03;4.53;;;1.90;99.90;;;;;;4957184;28;20601;-78
2021/01/30 11:11:23;;;;;;;4.68;4.28;;;2.00;99.90;;;;;;4957124;28;20221;-78
2021/01/30 11:13:50;;;;;;;5.35;4.20;;;1.90;99.90;;;;;;4957294;28;20197;-78
2021/01/30 11:16:20;;;;;;;4.72;3.88;;;2.00;99.90;;;;;;4955019;28;20223;-78
2021/01/30 11:18:48;;;;;;;3.83;3.53;;;2.10;99.90;;;;;;4955399;28;20600;-78
2021/01/30 11:21:29;;;;;;;4.13;3.60;;;2.10;99.90;;;;;;4956814;28;20256;-78
2021/01/30 11:23:56;;;;;;;3.22;2.75;;;2.20;99.90;;;;;;4956719;28;20238;-79
2021/01/30 11:26:41;;;;;;;2.85;2.65;;;2.20;99.90;;;;;;4955950;28;20224;-77
2021/01/30 11:29:31;;;;;;;4.05;3.13;;;2.20;99.90;;;;;;4956808;28;20213;-79
2021/01/30 11:31:59;;;;;;;4.30;3.90;;;2.20;99.90;;;;;;4957873;28;20221;-78
2021/01/30 11:34:26;;;;;;;3.05;2.85;;;2.10;99.90;;;;;;4972287;23;20722;-80
2021/01/30 11:36:53;;;;;;;2.78;2.58;;;2.20;99.90;;;;;;4953553;28;20197;-80
2021/01/30 11:39:25;;;;;;;2.70;2.50;;;2.20;99.90;;;;;;4954299;29;20201;-80
2021/01/30 11:41:52;;;;;;;2.70;2.50;;;2.30;99.90;;;;;;4960820;29;20198;-80
2021/01/30 11:44:18;;;;;;;3.28;2.50;;;2.40;99.90;;;;;;4959173;28;20231;-80
2021/01/30 11:46:44;;;;;;;3.33;3.08;;;2.40;99.90;;;;;;4953547;29;20224;-81
2021/01/30 11:49:11;;;;;;;3.60;3.25;;;2.50;99.90;;;;;;4957131;29;20283;-80
2021/01/30 11:51:38;;;;;;;2.47;2.20;;;2.60;99.90;;;;;;4958382;29;20250;-81
2021/01/30 11:54:04;;;;;;;4.40;2.63;;;2.50;99.90;;;;;;4958710;29;20231;-80
2021/01/30 11:56:31;;;;;;;4.88;2.92;;;2.50;99.90;;;;;;4959186;29;20208;-81
2021/01/30 11:58:57;;;;;;;3.55;2.65;;;2.50;99.90;;;;;;4959948;29;20285;-78
2021/01/30 12:01:24;;;;;;;3.05;2.70;;;2.60;99.90;;;;;;4959694;29;20197;-81
2021/01/30 12:03:50;;;;;;;2.30;1.90;;;2.60;99.90;;;;;;4959538;29;20256;-78
2021/01/30 12:06:17;;;;;;;3.22;2.90;;;2.50;99.90;;;;;;4959491;28;20205;-80
2021/01/30 12:08:44;;;;;;;3.97;2.47;;;2.50;99.90;;;;;;4960108;29;20205;-80
2021/01/30 12:11:11;;;;;;;3.67;3.15;;;2.50;99.90;;;;;;4959276;28;20226;-80
2021/01/30 12:13:37;;;;;;;2.50;2.30;;;2.60;99.90;;;;;;4959209;29;20225;-79
2021/01/30 12:16:05;;;;;;;2.20;1.75;;;2.60;99.90;;;;;;4959055;29;20216;-80
2021/01/30 12:18:33;;;;;;;2.05;1.95;;;2.50;99.90;;;;;;4958459;28;20254;-79
2021/01/30 12:20:59;;;;;;;2.30;2.20;;;2.50;99.90;;;;;;4958831;29;20196;-79
2021/01/30 12:23:26;;;;;;;4.60;2.85;;;2.50;99.90;;;;;;4958996;29;20225;-79
2021/01/30 12:25:54;;;;;;;2.40;2.20;;;2.60;99.90;;;;;;4959357;28;20213;-80
2021/01/30 12:28:24;;;;;;;2.22;1.80;;;2.70;99.90;;;;;;4962003;28;20211;-82
2021/01/30 12:30:50;;;;;;;2.20;2.00;;;2.70;99.90;;;;;;4963177;29;20185;-79
2021/01/30 12:33:17;;;;;;;2.75;2.03;;;2.70;99.90;;;;;;4962557;28;20221;-81
2021/01/30 12:35:44;;;;;;;2.83;2.58;;;2.90;99.90;;;;;;4958181;28;20729;-79
2021/01/30 12:38:10;;;;;;;2.17;1.92;;;2.90;99.90;;;;;;4961079;28;20765;-81
2021/01/30 12:40:38;;;;;;;3.05;2.75;;;2.90;99.90;;;;;;4957807;28;20197;-81
2021/01/30 12:43:06;;;;;;;2.15;2.05;;;2.90;99.90;;;;;;4958542;28;20201;-81
2021/01/30 12:45:33;;;;;;;2.28;2.05;;;3.00;99.90;;;;;;4961609;28;20256;-81
2021/01/30 12:48:00;;;;;;;2.38;1.90;;;3.10;99.90;;;;;;4960215;29;20194;-81
2021/01/30 12:50:29;;;;;;;2.42;2.22;;;3.10;99.90;;;;;;4961629;29;20216;-82
2021/01/30 12:52:55;;;;;;;6.97;2.10;;;3.20;99.90;;;;;;4961842;29;20209;-81
2021/01/30 12:55:22;;;;;;;2.10;1.90;;;3.20;99.90;;;;;;4963229;28;20204;-81
2021/01/30 12:57:49;;;;;;;2.03;1.60;;;3.30;99.90;;;;;;4961716;29;20201;-81
2021/01/30 13:00:19;;;;;;;2.20;2.10;;;3.40;99.90;;;;;;4963241;29;20218;-79
2021/01/30 13:02:46;;;;;;;2.25;2.05;;;3.40;99.90;;;;;;4962185;29;20201;-80
2021/01/30 13:05:13;;;;;;;2.55;2.35;;;3.50;99.90;;;;;;4961342;29;20221;-80
2021/01/30 13:07:40;;;;;;;2.42;2.22;;;3.40;99.90;;;;;;4959870;29;20220;-78
2021/01/30 13:10:08;;;;;;;2.13;1.92;;;3.50;99.90;;;;;;4957684;29;20218;-79